ZSSS

Shanghai Hongqiao International Airport

Shanghai, China
METAR ZSSS 172000Z 36003MPS CAVOK 15/13 Q1020 NOSIG
Observed Flight Rules
Oct-17 @ 20:00 UTC (30 minutes ago) Visual Flight Rules
Wind Visibility Clouds
360° at 6 knots 10,000+ meters
  • Clear skies
Temperatures Readings
Current 15°C / 59°F
Dewpoint 13°C / 55°F
Humidity 88%
Altimeter 30.12" Hg
Pressure 1020 hPa
Elevation 7
METAR ZSSS 172000Z 36003MPS CAVOK 15/13 Q1020 NOSIG
Observed Flight Rules
Oct-17 @ 20:00 UTC
(30 minutes ago)
VFR
Wind Visibility
360° at 6 knots 10,000+ meters
Clouds
  • Clear skies
Temperature Dewpoint
15°C / 59°F 13°C / 55°F
Humidity Altimeter Pressure
88% 30.12" Hg 1020 hPa